This is the latest recevied weather packets stored in our database for station/object SV2RCS-13. If no packets are shown the sender has not sent any weather packets the latest 10 day(s).
| Time | Temp. | Humidity | Pressure | Rain* | Wind** | Luminosity | Snow |
|---|---|---|---|---|---|---|---|
| 1777539417 | 21.11° C | 40% | 1012.9 hPa | - | - | - | - |
| 1777538817 | 21.67° C | 37% | 1012.9 hPa | - | - | - | - |
| 1777538217 | 21.11° C | 35% | 1013 hPa | - | - | - | - |
| 1777537617 | 21.67° C | 34% | 1012.8 hPa | - | - | - | - |
| 1777537018 | 21.67° C | 38% | 1013.1 hPa | - | - | - | - |
| 1777536417 | 20.56° C | 42% | 1013.6 hPa | - | - | - | - |
| 1777535817 | 20.56° C | 41% | 1013.5 hPa | - | - | - | - |
| 1777535218 | 20° C | 41% | 1013.7 hPa | - | - | - | - |
| 1777534617 | 20° C | 40% | 1013.7 hPa | - | - | - | - |
| 1777534017 | 20.56° C | 38% | 1013.7 hPa | - | - | - | - |
| 1777533417 | 21.11° C | 39% | 1013.6 hPa | - | - | - | - |
| 1777532817 | 20° C | 39% | 1013.5 hPa | - | - | - | - |
| 1777532216 | 21.11° C | 38% | 1013.6 hPa | - | - | - | - |
| 1777531617 | 21.11° C | 38% | 1013.7 hPa | - | - | - | - |
| 1777531017 | 20° C | 39% | 1014 hPa | - | - | - | - |
| 1777530417 | 20.56° C | 37% | 1013.9 hPa | - | - | - | - |
| 1777529817 | 20° C | 37% | 1014.1 hPa | - | - | - | - |
| 1777529228 | 20° C | 38% | 1014.1 hPa | - | - | - | - |
| 1777528620 | 19.44° C | 39% | 1014.3 hPa | - | - | - | - |
| 1777528017 | 19.44° C | 38% | 1014.3 hPa | - | - | - | - |
| 1777527416 | 21.11° C | 28% | 1014.4 hPa | - | - | - | - |
| 1777526817 | 19.44° C | 34% | 1014.6 hPa | - | - | - | - |
| 1777526217 | 17.78° C | 40% | 1014.8 hPa | - | - | - | - |
| 1777525617 | 17.22° C | 39% | 1015 hPa | - | - | - | - |
| 1777525017 | 18.33° C | 34% | 1014.9 hPa | - | - | - | - |
* Rain since midnight (hover to see other rain measurements)
** Current wind speed in m/s (hover to see current wind gust speed)